sensor_id;sensor_type;location;lat;lon;timestamp;P1;durP1;ratioP1;P2;durP2;ratioP2
32697;SDS011;19087;51.062;3.754;2023-08-17T00:01:51;0.20;;;0.20;;
32697;SDS011;19087;51.062;3.754;2023-08-17T00:04:17;0.10;;;0.10;;
32697;SDS011;19087;51.062;3.754;2023-08-17T00:06:43;0.20;;;0.20;;
32697;SDS011;19087;51.062;3.754;2023-08-17T00:09:10;0.20;;;0.20;;
32697;SDS011;19087;51.062;3.754;2023-08-17T00:11:37;0.20;;;0.20;;
32697;SDS011;19087;51.062;3.754;2023-08-17T00:14:03;0.15;;;0.15;;
32697;SDS011;19087;51.062;3.754;2023-08-17T00:16:31;0.20;;;0.20;;
32697;SDS011;19087;51.062;3.754;2023-08-17T00:18:57;0.10;;;0.10;;
32697;SDS011;19087;51.062;3.754;2023-08-17T00:21:22;0.10;;;0.10;;
32697;SDS011;19087;51.062;3.754;2023-08-17T00:23:49;0.10;;;0.10;;
32697;SDS011;19087;51.062;3.754;2023-08-17T00:26:15;0.20;;;0.20;;
32697;SDS011;19087;51.062;3.754;2023-08-17T00:28:41;0.10;;;0.10;;
32697;SDS011;19087;51.062;3.754;2023-08-17T00:31:07;0.20;;;0.20;;
32697;SDS011;19087;51.062;3.754;2023-08-17T00:33:32;0.10;;;0.10;;
32697;SDS011;19087;51.062;3.754;2023-08-17T00:35:58;0.10;;;0.10;;
32697;SDS011;19087;51.062;3.754;2023-08-17T00:38:24;0.10;;;0.10;;
32697;SDS011;19087;51.062;3.754;2023-08-17T00:40:50;0.20;;;0.20;;
32697;SDS011;19087;51.062;3.754;2023-08-17T00:43:16;0.20;;;0.20;;
32697;SDS011;19087;51.062;3.754;2023-08-17T00:45:42;0.20;;;0.20;;
32697;SDS011;19087;51.062;3.754;2023-08-17T00:48:11;0.10;;;0.10;;
32697;SDS011;19087;51.062;3.754;2023-08-17T00:50:38;0.20;;;0.20;;
32697;SDS011;19087;51.062;3.754;2023-08-17T00:53:05;0.15;;;0.15;;
32697;SDS011;19087;51.062;3.754;2023-08-17T00:55:39;0.10;;;0.10;;
32697;SDS011;19087;51.062;3.754;2023-08-17T00:58:06;0.10;;;0.10;;
32697;SDS011;19087;51.062;3.754;2023-08-17T01:00:33;0.10;;;0.10;;
32697;SDS011;19087;51.062;3.754;2023-08-17T01:03:00;0.10;;;0.10;;
32697;SDS011;19087;51.062;3.754;2023-08-17T01:05:26;0.10;;;0.10;;
32697;SDS011;19087;51.062;3.754;2023-08-17T01:07:52;0.10;;;0.10;;
32697;SDS011;19087;51.062;3.754;2023-08-17T01:10:17;0.10;;;0.10;;
32697;SDS011;19087;51.062;3.754;2023-08-17T01:12:46;0.20;;;0.20;;
32697;SDS011;19087;51.062;3.754;2023-08-17T01:15:49;0.10;;;0.10;;
32697;SDS011;19087;51.062;3.754;2023-08-17T01:21:02;0.10;;;0.10;;
32697;SDS011;19087;51.062;3.754;2023-08-17T01:23:30;0.10;;;0.10;;
32697;SDS011;19087;51.062;3.754;2023-08-17T01:28:45;0.10;;;0.10;;
32697;SDS011;19087;51.062;3.754;2023-08-17T01:34:06;0.20;;;0.20;;
32697;SDS011;19087;51.062;3.754;2023-08-17T01:36:39;0.10;;;0.10;;
32697;SDS011;19087;51.062;3.754;2023-08-17T01:39:10;0.20;;;0.20;;
32697;SDS011;19087;51.062;3.754;2023-08-17T01:41:37;0.20;;;0.20;;
32697;SDS011;19087;51.062;3.754;2023-08-17T01:44:03;0.10;;;0.10;;
32697;SDS011;19087;51.062;3.754;2023-08-17T01:46:31;0.13;;;0.13;;
32697;SDS011;19087;51.062;3.754;2023-08-17T01:48:58;0.20;;;0.20;;
32697;SDS011;19087;51.062;3.754;2023-08-17T01:51:23;0.10;;;0.10;;
32697;SDS011;19087;51.062;3.754;2023-08-17T01:53:50;0.20;;;0.20;;
32697;SDS011;19087;51.062;3.754;2023-08-17T01:56:16;0.20;;;0.20;;
32697;SDS011;19087;51.062;3.754;2023-08-17T01:58:42;0.13;;;0.13;;
32697;SDS011;19087;51.062;3.754;2023-08-17T02:01:10;0.10;;;0.10;;
32697;SDS011;19087;51.062;3.754;2023-08-17T02:03:39;0.17;;;0.17;;
32697;SDS011;19087;51.062;3.754;2023-08-17T02:06:05;0.20;;;0.20;;
32697;SDS011;19087;51.062;3.754;2023-08-17T02:08:32;0.10;;;0.10;;
32697;SDS011;19087;51.062;3.754;2023-08-17T02:10:59;0.10;;;0.10;;
32697;SDS011;19087;51.062;3.754;2023-08-17T02:13:24;0.10;;;0.10;;
32697;SDS011;19087;51.062;3.754;2023-08-17T02:15:53;0.20;;;0.20;;
32697;SDS011;19087;51.062;3.754;2023-08-17T02:18:19;0.20;;;0.20;;
32697;SDS011;19087;51.062;3.754;2023-08-17T02:20:47;0.15;;;0.15;;
32697;SDS011;19087;51.062;3.754;2023-08-17T02:23:12;0.10;;;0.10;;
32697;SDS011;19087;51.062;3.754;2023-08-17T02:25:38;0.20;;;0.20;;
32697;SDS011;19087;51.062;3.754;2023-08-17T02:28:04;0.10;;;0.10;;
32697;SDS011;19087;51.062;3.754;2023-08-17T02:30:30;0.10;;;0.10;;
32697;SDS011;19087;51.062;3.754;2023-08-17T02:32:57;0.10;;;0.10;;
32697;SDS011;19087;51.062;3.754;2023-08-17T02:35:23;0.10;;;0.10;;
32697;SDS011;19087;51.062;3.754;2023-08-17T02:37:49;0.20;;;0.20;;
32697;SDS011;19087;51.062;3.754;2023-08-17T02:40:16;0.20;;;0.20;;
32697;SDS011;19087;51.062;3.754;2023-08-17T02:42:42;0.10;;;0.10;;
32697;SDS011;19087;51.062;3.754;2023-08-17T02:45:09;0.20;;;0.20;;
32697;SDS011;19087;51.062;3.754;2023-08-17T02:47:36;0.10;;;0.10;;
32697;SDS011;19087;51.062;3.754;2023-08-17T02:50:02;0.10;;;0.10;;
32697;SDS011;19087;51.062;3.754;2023-08-17T02:52:28;0.10;;;0.10;;
32697;SDS011;19087;51.062;3.754;2023-08-17T02:54:55;0.15;;;0.15;;
32697;SDS011;19087;51.062;3.754;2023-08-17T02:57:20;0.10;;;0.10;;
32697;SDS011;19087;51.062;3.754;2023-08-17T02:59:48;0.17;;;0.17;;
32697;SDS011;19087;51.062;3.754;2023-08-17T03:02:14;0.10;;;0.10;;
32697;SDS011;19087;51.062;3.754;2023-08-17T03:04:40;0.17;;;0.17;;
32697;SDS011;19087;51.062;3.754;2023-08-17T03:07:07;0.20;;;0.20;;
32697;SDS011;19087;51.062;3.754;2023-08-17T03:09:34;0.10;;;0.10;;
32697;SDS011;19087;51.062;3.754;2023-08-17T03:12:00;0.20;;;0.20;;
32697;SDS011;19087;51.062;3.754;2023-08-17T03:14:26;0.20;;;0.20;;
32697;SDS011;19087;51.062;3.754;2023-08-17T03:16:52;0.20;;;0.20;;
32697;SDS011;19087;51.062;3.754;2023-08-17T03:19:18;0.20;;;0.20;;
32697;SDS011;19087;51.062;3.754;2023-08-17T03:21:44;0.20;;;0.20;;
32697;SDS011;19087;51.062;3.754;2023-08-17T03:24:10;0.20;;;0.20;;
32697;SDS011;19087;51.062;3.754;2023-08-17T03:26:35;0.10;;;0.10;;
32697;SDS011;19087;51.062;3.754;2023-08-17T03:29:01;0.20;;;0.20;;
32697;SDS011;19087;51.062;3.754;2023-08-17T03:31:27;0.10;;;0.10;;
32697;SDS011;19087;51.062;3.754;2023-08-17T03:33:53;0.10;;;0.10;;
32697;SDS011;19087;51.062;3.754;2023-08-17T03:36:21;0.10;;;0.10;;
32697;SDS011;19087;51.062;3.754;2023-08-17T03:38:47;0.10;;;0.10;;
32697;SDS011;19087;51.062;3.754;2023-08-17T03:41:14;0.20;;;0.20;;
32697;SDS011;19087;51.062;3.754;2023-08-17T03:43:40;0.20;;;0.20;;
32697;SDS011;19087;51.062;3.754;2023-08-17T03:46:06;0.10;;;0.10;;
32697;SDS011;19087;51.062;3.754;2023-08-17T03:48:32;0.10;;;0.10;;
32697;SDS011;19087;51.062;3.754;2023-08-17T03:50:57;0.10;;;0.10;;
32697;SDS011;19087;51.062;3.754;2023-08-17T03:53:23;0.10;;;0.10;;
32697;SDS011;19087;51.062;3.754;2023-08-17T03:55:49;0.13;;;0.13;;
32697;SDS011;19087;51.062;3.754;2023-08-17T03:58:16;0.20;;;0.20;;
32697;SDS011;19087;51.062;3.754;2023-08-17T04:00:52;0.20;;;0.20;;
32697;SDS011;19087;51.062;3.754;2023-08-17T04:03:18;0.20;;;0.20;;
32697;SDS011;19087;51.062;3.754;2023-08-17T04:05:45;0.20;;;0.20;;
32697;SDS011;19087;51.062;3.754;2023-08-17T04:08:10;0.20;;;0.20;;
32697;SDS011;19087;51.062;3.754;2023-08-17T04:10:36;0.20;;;0.20;;
32697;SDS011;19087;51.062;3.754;2023-08-17T04:13:02;0.20;;;0.20;;
32697;SDS011;19087;51.062;3.754;2023-08-17T04:15:28;0.20;;;0.20;;
32697;SDS011;19087;51.062;3.754;2023-08-17T04:17:55;0.10;;;0.10;;
32697;SDS011;19087;51.062;3.754;2023-08-17T04:20:21;0.10;;;0.10;;
32697;SDS011;19087;51.062;3.754;2023-08-17T04:22:48;0.10;;;0.10;;
32697;SDS011;19087;51.062;3.754;2023-08-17T04:25:14;0.10;;;0.10;;
32697;SDS011;19087;51.062;3.754;2023-08-17T04:27:40;0.10;;;0.10;;
32697;SDS011;19087;51.062;3.754;2023-08-17T04:30:06;0.20;;;0.20;;
32697;SDS011;19087;51.062;3.754;2023-08-17T04:32:33;0.10;;;0.10;;
32697;SDS011;19087;51.062;3.754;2023-08-17T04:34:59;0.20;;;0.20;;
32697;SDS011;19087;51.062;3.754;2023-08-17T04:37:26;0.10;;;0.10;;
32697;SDS011;19087;51.062;3.754;2023-08-17T04:39:52;0.17;;;0.17;;
32697;SDS011;19087;51.062;3.754;2023-08-17T04:42:25;0.15;;;0.15;;
32697;SDS011;19087;51.062;3.754;2023-08-17T04:44:55;0.10;;;0.10;;
32697;SDS011;19087;51.062;3.754;2023-08-17T04:47:21;0.17;;;0.17;;
32697;SDS011;19087;51.062;3.754;2023-08-17T04:49:48;0.10;;;0.10;;
32697;SDS011;19087;51.062;3.754;2023-08-17T04:52:14;0.10;;;0.10;;
32697;SDS011;19087;51.062;3.754;2023-08-17T04:54:41;0.10;;;0.10;;
32697;SDS011;19087;51.062;3.754;2023-08-17T04:57:07;0.10;;;0.10;;
32697;SDS011;19087;51.062;3.754;2023-08-17T04:59:33;0.20;;;0.20;;
32697;SDS011;19087;51.062;3.754;2023-08-17T05:01:58;0.20;;;0.20;;
32697;SDS011;19087;51.062;3.754;2023-08-17T05:04:24;0.10;;;0.10;;
32697;SDS011;19087;51.062;3.754;2023-08-17T05:06:50;0.20;;;0.20;;
32697;SDS011;19087;51.062;3.754;2023-08-17T05:09:15;0.20;;;0.20;;
32697;SDS011;19087;51.062;3.754;2023-08-17T05:11:41;0.20;;;0.20;;
32697;SDS011;19087;51.062;3.754;2023-08-17T05:14:07;0.10;;;0.10;;
32697;SDS011;19087;51.062;3.754;2023-08-17T05:16:33;0.20;;;0.20;;
32697;SDS011;19087;51.062;3.754;2023-08-17T05:19:00;0.20;;;0.20;;
32697;SDS011;19087;51.062;3.754;2023-08-17T05:21:26;0.20;;;0.20;;
32697;SDS011;19087;51.062;3.754;2023-08-17T05:23:53;0.10;;;0.10;;
32697;SDS011;19087;51.062;3.754;2023-08-17T05:26:19;0.20;;;0.20;;
32697;SDS011;19087;51.062;3.754;2023-08-17T05:28:44;0.10;;;0.10;;
32697;SDS011;19087;51.062;3.754;2023-08-17T05:31:10;0.20;;;0.20;;
32697;SDS011;19087;51.062;3.754;2023-08-17T05:33:36;0.10;;;0.10;;
32697;SDS011;19087;51.062;3.754;2023-08-17T05:36:02;0.10;;;0.10;;
32697;SDS011;19087;51.062;3.754;2023-08-17T05:38:29;0.10;;;0.10;;
32697;SDS011;19087;51.062;3.754;2023-08-17T05:40:55;0.10;;;0.10;;
32697;SDS011;19087;51.062;3.754;2023-08-17T05:43:21;0.20;;;0.20;;
32697;SDS011;19087;51.062;3.754;2023-08-17T05:45:47;0.20;;;0.20;;
32697;SDS011;19087;51.062;3.754;2023-08-17T05:48:20;0.10;;;0.10;;
32697;SDS011;19087;51.062;3.754;2023-08-17T05:50:47;0.20;;;0.20;;
32697;SDS011;19087;51.062;3.754;2023-08-17T05:53:13;0.20;;;0.20;;
32697;SDS011;19087;51.062;3.754;2023-08-17T05:55:40;0.10;;;0.10;;
32697;SDS011;19087;51.062;3.754;2023-08-17T05:58:06;0.17;;;0.17;;
32697;SDS011;19087;51.062;3.754;2023-08-17T06:00:32;0.10;;;0.10;;
32697;SDS011;19087;51.062;3.754;2023-08-17T06:02:58;0.10;;;0.10;;
32697;SDS011;19087;51.062;3.754;2023-08-17T06:05:27;0.10;;;0.10;;
32697;SDS011;19087;51.062;3.754;2023-08-17T06:07:54;0.20;;;0.20;;
32697;SDS011;19087;51.062;3.754;2023-08-17T06:10:22;0.10;;;0.10;;
32697;SDS011;19087;51.062;3.754;2023-08-17T06:12:53;0.10;;;0.10;;
32697;SDS011;19087;51.062;3.754;2023-08-17T06:15:26;0.10;;;0.10;;
32697;SDS011;19087;51.062;3.754;2023-08-17T06:17:52;0.10;;;0.10;;
32697;SDS011;19087;51.062;3.754;2023-08-17T06:20:18;0.10;;;0.10;;
32697;SDS011;19087;51.062;3.754;2023-08-17T06:22:44;0.10;;;0.10;;
32697;SDS011;19087;51.062;3.754;2023-08-17T06:25:11;0.10;;;0.10;;
32697;SDS011;19087;51.062;3.754;2023-08-17T06:27:37;0.10;;;0.10;;
32697;SDS011;19087;51.062;3.754;2023-08-17T06:30:03;0.10;;;0.10;;
32697;SDS011;19087;51.062;3.754;2023-08-17T06:32:29;0.10;;;0.10;;
32697;SDS011;19087;51.062;3.754;2023-08-17T06:34:56;0.10;;;0.10;;
32697;SDS011;19087;51.062;3.754;2023-08-17T06:37:22;0.10;;;0.10;;
32697;SDS011;19087;51.062;3.754;2023-08-17T06:39:48;0.10;;;0.10;;
32697;SDS011;19087;51.062;3.754;2023-08-17T06:42:14;0.10;;;0.10;;
32697;SDS011;19087;51.062;3.754;2023-08-17T06:44:41;0.10;;;0.10;;
32697;SDS011;19087;51.062;3.754;2023-08-17T06:47:07;0.10;;;0.10;;
32697;SDS011;19087;51.062;3.754;2023-08-17T06:49:34;0.10;;;0.10;;
32697;SDS011;19087;51.062;3.754;2023-08-17T06:52:00;0.00;;;0.00;;
32697;SDS011;19087;51.062;3.754;2023-08-17T06:54:26;0.00;;;0.00;;
32697;SDS011;19087;51.062;3.754;2023-08-17T06:56:53;0.00;;;0.00;;
32697;SDS011;19087;51.062;3.754;2023-08-17T06:59:19;0.00;;;0.00;;
32697;SDS011;19087;51.062;3.754;2023-08-17T07:01:45;0.10;;;0.10;;
32697;SDS011;19087;51.062;3.754;2023-08-17T07:04:12;0.00;;;0.00;;
32697;SDS011;19087;51.062;3.754;2023-08-17T07:06:37;0.00;;;0.00;;
32697;SDS011;19087;51.062;3.754;2023-08-17T07:09:04;0.00;;;0.00;;
32697;SDS011;19087;51.062;3.754;2023-08-17T07:11:30;0.00;;;0.00;;
32697;SDS011;19087;51.062;3.754;2023-08-17T07:13:56;0.00;;;0.00;;
32697;SDS011;19087;51.062;3.754;2023-08-17T07:16:23;0.00;;;0.00;;
32697;SDS011;19087;51.062;3.754;2023-08-17T07:18:50;0.00;;;0.00;;
32697;SDS011;19087;51.062;3.754;2023-08-17T07:21:16;0.00;;;0.00;;
32697;SDS011;19087;51.062;3.754;2023-08-17T07:23:44;0.00;;;0.00;;
32697;SDS011;19087;51.062;3.754;2023-08-17T07:26:10;0.00;;;0.00;;
32697;SDS011;19087;51.062;3.754;2023-08-17T07:28:36;0.00;;;0.00;;
32697;SDS011;19087;51.062;3.754;2023-08-17T07:31:02;0.08;;;0.08;;
32697;SDS011;19087;51.062;3.754;2023-08-17T07:33:27;0.00;;;0.00;;
32697;SDS011;19087;51.062;3.754;2023-08-17T07:35:53;0.10;;;0.10;;
32697;SDS011;19087;51.062;3.754;2023-08-17T07:38:21;0.10;;;0.10;;
32697;SDS011;19087;51.062;3.754;2023-08-17T07:40:49;0.10;;;0.10;;
32697;SDS011;19087;51.062;3.754;2023-08-17T07:43:15;0.10;;;0.10;;
32697;SDS011;19087;51.062;3.754;2023-08-17T07:45:42;0.10;;;0.10;;
32697;SDS011;19087;51.062;3.754;2023-08-17T07:48:08;0.10;;;0.10;;
32697;SDS011;19087;51.062;3.754;2023-08-17T07:50:34;0.10;;;0.10;;
32697;SDS011;19087;51.062;3.754;2023-08-17T07:52:59;0.10;;;0.10;;
32697;SDS011;19087;51.062;3.754;2023-08-17T07:55:25;0.10;;;0.10;;
32697;SDS011;19087;51.062;3.754;2023-08-17T07:57:51;0.10;;;0.10;;
32697;SDS011;19087;51.062;3.754;2023-08-17T08:00:20;0.10;;;0.10;;
32697;SDS011;19087;51.062;3.754;2023-08-17T08:02:50;0.03;;;0.03;;
32697;SDS011;19087;51.062;3.754;2023-08-17T08:05:16;0.00;;;0.00;;
32697;SDS011;19087;51.062;3.754;2023-08-17T08:07:41;0.00;;;0.00;;
32697;SDS011;19087;51.062;3.754;2023-08-17T08:10:07;0.10;;;0.10;;
32697;SDS011;19087;51.062;3.754;2023-08-17T08:12:33;0.00;;;0.00;;
32697;SDS011;19087;51.062;3.754;2023-08-17T08:14:59;0.05;;;0.05;;
32697;SDS011;19087;51.062;3.754;2023-08-17T08:17:25;0.00;;;0.00;;
32697;SDS011;19087;51.062;3.754;2023-08-17T08:19:51;0.08;;;0.08;;
32697;SDS011;19087;51.062;3.754;2023-08-17T08:22:17;0.00;;;0.00;;
32697;SDS011;19087;51.062;3.754;2023-08-17T08:24:43;0.00;;;0.00;;
32697;SDS011;19087;51.062;3.754;2023-08-17T08:27:09;0.10;;;0.10;;
32697;SDS011;19087;51.062;3.754;2023-08-17T08:29:35;0.00;;;0.00;;
32697;SDS011;19087;51.062;3.754;2023-08-17T08:32:01;0.10;;;0.10;;
32697;SDS011;19087;51.062;3.754;2023-08-17T08:34:28;0.10;;;0.10;;
32697;SDS011;19087;51.062;3.754;2023-08-17T08:36:53;0.00;;;0.00;;
32697;SDS011;19087;51.062;3.754;2023-08-17T08:39:20;0.00;;;0.00;;
32697;SDS011;19087;51.062;3.754;2023-08-17T08:41:46;0.00;;;0.00;;
32697;SDS011;19087;51.062;3.754;2023-08-17T08:44:13;0.08;;;0.08;;
32697;SDS011;19087;51.062;3.754;2023-08-17T08:46:39;0.00;;;0.00;;
32697;SDS011;19087;51.062;3.754;2023-08-17T08:49:09;0.00;;;0.00;;
32697;SDS011;19087;51.062;3.754;2023-08-17T08:51:37;0.10;;;0.10;;
32697;SDS011;19087;51.062;3.754;2023-08-17T08:54:13;0.10;;;0.10;;
32697;SDS011;19087;51.062;3.754;2023-08-17T08:56:42;0.00;;;0.00;;
32697;SDS011;19087;51.062;3.754;2023-08-17T08:59:10;0.03;;;0.03;;
32697;SDS011;19087;51.062;3.754;2023-08-17T09:01:36;0.00;;;0.00;;
32697;SDS011;19087;51.062;3.754;2023-08-17T09:04:03;0.00;;;0.00;;
32697;SDS011;19087;51.062;3.754;2023-08-17T09:06:30;0.00;;;0.00;;
32697;SDS011;19087;51.062;3.754;2023-08-17T09:08:58;0.00;;;0.00;;
32697;SDS011;19087;51.062;3.754;2023-08-17T09:11:26;0.00;;;0.00;;
32697;SDS011;19087;51.062;3.754;2023-08-17T09:13:52;0.00;;;0.00;;
32697;SDS011;19087;51.062;3.754;2023-08-17T09:16:18;0.00;;;0.00;;
32697;SDS011;19087;51.062;3.754;2023-08-17T09:18:44;0.10;;;0.10;;
32697;SDS011;19087;51.062;3.754;2023-08-17T09:21:19;0.10;;;0.10;;
32697;SDS011;19087;51.062;3.754;2023-08-17T09:23:54;0.00;;;0.00;;
32697;SDS011;19087;51.062;3.754;2023-08-17T09:26:21;0.00;;;0.00;;
32697;SDS011;19087;51.062;3.754;2023-08-17T09:28:50;0.00;;;0.00;;
32697;SDS011;19087;51.062;3.754;2023-08-17T09:31:23;0.10;;;0.10;;
32697;SDS011;19087;51.062;3.754;2023-08-17T09:33:49;0.00;;;0.00;;
32697;SDS011;19087;51.062;3.754;2023-08-17T09:36:19;0.00;;;0.00;;
32697;SDS011;19087;51.062;3.754;2023-08-17T09:38:47;0.00;;;0.00;;
32697;SDS011;19087;51.062;3.754;2023-08-17T09:41:16;0.00;;;0.00;;
32697;SDS011;19087;51.062;3.754;2023-08-17T09:43:43;0.10;;;0.10;;
32697;SDS011;19087;51.062;3.754;2023-08-17T09:46:11;0.00;;;0.00;;
32697;SDS011;19087;51.062;3.754;2023-08-17T09:48:38;0.10;;;0.10;;
32697;SDS011;19087;51.062;3.754;2023-08-17T09:51:14;0.00;;;0.00;;
32697;SDS011;19087;51.062;3.754;2023-08-17T09:53:51;0.00;;;0.00;;
32697;SDS011;19087;51.062;3.754;2023-08-17T09:56:21;0.00;;;0.00;;
32697;SDS011;19087;51.062;3.754;2023-08-17T09:58:48;0.00;;;0.00;;
32697;SDS011;19087;51.062;3.754;2023-08-17T10:01:14;0.00;;;0.00;;
32697;SDS011;19087;51.062;3.754;2023-08-17T10:03:43;0.00;;;0.00;;
32697;SDS011;19087;51.062;3.754;2023-08-17T10:06:16;0.00;;;0.00;;
32697;SDS011;19087;51.062;3.754;2023-08-17T10:08:48;0.00;;;0.00;;
32697;SDS011;19087;51.062;3.754;2023-08-17T10:11:21;0.00;;;0.00;;
32697;SDS011;19087;51.062;3.754;2023-08-17T10:13:51;0.00;;;0.00;;
32697;SDS011;19087;51.062;3.754;2023-08-17T10:16:23;0.00;;;0.00;;
32697;SDS011;19087;51.062;3.754;2023-08-17T10:18:58;0.00;;;0.00;;
32697;SDS011;19087;51.062;3.754;2023-08-17T10:21:37;0.05;;;0.05;;
32697;SDS011;19087;51.062;3.754;2023-08-17T10:24:07;0.00;;;0.00;;
32697;SDS011;19087;51.062;3.754;2023-08-17T10:26:35;0.00;;;0.00;;
32697;SDS011;19087;51.062;3.754;2023-08-17T10:29:02;0.00;;;0.00;;
32697;SDS011;19087;51.062;3.754;2023-08-17T10:31:29;0.00;;;0.00;;
32697;SDS011;19087;51.062;3.754;2023-08-17T10:33:55;0.00;;;0.00;;
32697;SDS011;19087;51.062;3.754;2023-08-17T10:36:29;0.00;;;0.00;;
32697;SDS011;19087;51.062;3.754;2023-08-17T10:44:58;0.00;;;0.00;;
32697;SDS011;19087;51.062;3.754;2023-08-17T10:52:30;0.00;;;0.00;;
32697;SDS011;19087;51.062;3.754;2023-08-17T10:55:01;0.00;;;0.00;;
32697;SDS011;19087;51.062;3.754;2023-08-17T11:02:58;0.00;;;0.00;;
32697;SDS011;19087;51.062;3.754;2023-08-17T11:05:42;0.00;;;0.00;;
32697;SDS011;19087;51.062;3.754;2023-08-17T11:09:15;0.00;;;0.00;;
32697;SDS011;19087;51.062;3.754;2023-08-17T11:11:19;0.10;;;0.10;;
32697;SDS011;19087;51.062;3.754;2023-08-17T11:13:45;0.00;;;0.00;;
32697;SDS011;19087;51.062;3.754;2023-08-17T11:16:13;0.10;;;0.10;;
32697;SDS011;19087;51.062;3.754;2023-08-17T11:18:39;0.00;;;0.00;;
32697;SDS011;19087;51.062;3.754;2023-08-17T11:21:09;0.00;;;0.00;;
32697;SDS011;19087;51.062;3.754;2023-08-17T11:23:39;0.00;;;0.00;;
32697;SDS011;19087;51.062;3.754;2023-08-17T11:26:07;0.00;;;0.00;;
32697;SDS011;19087;51.062;3.754;2023-08-17T11:28:33;0.00;;;0.00;;
32697;SDS011;19087;51.062;3.754;2023-08-17T11:31:06;0.00;;;0.00;;
32697;SDS011;19087;51.062;3.754;2023-08-17T11:33:34;0.03;;;0.03;;
32697;SDS011;19087;51.062;3.754;2023-08-17T11:36:02;0.00;;;0.00;;
32697;SDS011;19087;51.062;3.754;2023-08-17T11:38:34;0.08;;;0.08;;
32697;SDS011;19087;51.062;3.754;2023-08-17T11:41:01;0.00;;;0.00;;
32697;SDS011;19087;51.062;3.754;2023-08-17T11:43:28;0.10;;;0.10;;
32697;SDS011;19087;51.062;3.754;2023-08-17T11:45:55;0.00;;;0.00;;
32697;SDS011;19087;51.062;3.754;2023-08-17T11:48:22;0.00;;;0.00;;
32697;SDS011;19087;51.062;3.754;2023-08-17T11:50:49;0.00;;;0.00;;
32697;SDS011;19087;51.062;3.754;2023-08-17T11:53:15;0.00;;;0.00;;
32697;SDS011;19087;51.062;3.754;2023-08-17T11:55:41;0.00;;;0.00;;
32697;SDS011;19087;51.062;3.754;2023-08-17T11:58:07;0.00;;;0.00;;
32697;SDS011;19087;51.062;3.754;2023-08-17T12:00:36;0.00;;;0.00;;
32697;SDS011;19087;51.062;3.754;2023-08-17T12:03:06;0.05;;;0.05;;
32697;SDS011;19087;51.062;3.754;2023-08-17T12:05:32;0.00;;;0.00;;
32697;SDS011;19087;51.062;3.754;2023-08-17T12:08:01;0.00;;;0.00;;
32697;SDS011;19087;51.062;3.754;2023-08-17T12:10:48;0.00;;;0.00;;
32697;SDS011;19087;51.062;3.754;2023-08-17T12:13:13;0.10;;;0.10;;
32697;SDS011;19087;51.062;3.754;2023-08-17T12:15:39;0.00;;;0.00;;
32697;SDS011;19087;51.062;3.754;2023-08-17T12:18:05;0.00;;;0.00;;
32697;SDS011;19087;51.062;3.754;2023-08-17T12:20:34;0.05;;;0.05;;
32697;SDS011;19087;51.062;3.754;2023-08-17T12:23:01;0.00;;;0.00;;
32697;SDS011;19087;51.062;3.754;2023-08-17T12:25:27;0.10;;;0.10;;
32697;SDS011;19087;51.062;3.754;2023-08-17T12:27:53;0.00;;;0.00;;
32697;SDS011;19087;51.062;3.754;2023-08-17T12:30:29;0.00;;;0.00;;
32697;SDS011;19087;51.062;3.754;2023-08-17T12:33:01;0.08;;;0.08;;
32697;SDS011;19087;51.062;3.754;2023-08-17T12:35:26;0.00;;;0.00;;
32697;SDS011;19087;51.062;3.754;2023-08-17T12:37:53;0.10;;;0.10;;
32697;SDS011;19087;51.062;3.754;2023-08-17T12:40:19;0.00;;;0.00;;
32697;SDS011;19087;51.062;3.754;2023-08-17T12:42:46;0.00;;;0.00;;
32697;SDS011;19087;51.062;3.754;2023-08-17T12:45:12;0.00;;;0.00;;
32697;SDS011;19087;51.062;3.754;2023-08-17T12:47:38;0.03;;;0.03;;
32697;SDS011;19087;51.062;3.754;2023-08-17T12:50:04;0.03;;;0.03;;
32697;SDS011;19087;51.062;3.754;2023-08-17T12:52:31;0.00;;;0.00;;
32697;SDS011;19087;51.062;3.754;2023-08-17T12:54:57;0.00;;;0.00;;
32697;SDS011;19087;51.062;3.754;2023-08-17T12:57:23;0.00;;;0.00;;
32697;SDS011;19087;51.062;3.754;2023-08-17T12:59:48;0.00;;;0.00;;
32697;SDS011;19087;51.062;3.754;2023-08-17T13:02:14;0.10;;;0.10;;
32697;SDS011;19087;51.062;3.754;2023-08-17T13:04:41;0.00;;;0.00;;
32697;SDS011;19087;51.062;3.754;2023-08-17T13:07:06;0.00;;;0.00;;
32697;SDS011;19087;51.062;3.754;2023-08-17T13:09:33;0.00;;;0.00;;
32697;SDS011;19087;51.062;3.754;2023-08-17T13:11:59;0.00;;;0.00;;
32697;SDS011;19087;51.062;3.754;2023-08-17T13:14:25;0.00;;;0.00;;
32697;SDS011;19087;51.062;3.754;2023-08-17T13:16:50;0.00;;;0.00;;
32697;SDS011;19087;51.062;3.754;2023-08-17T13:19:17;0.00;;;0.00;;
32697;SDS011;19087;51.062;3.754;2023-08-17T13:21:43;0.00;;;0.00;;
32697;SDS011;19087;51.062;3.754;2023-08-17T13:24:09;0.00;;;0.00;;
32697;SDS011;19087;51.062;3.754;2023-08-17T13:26:35;0.00;;;0.00;;
32697;SDS011;19087;51.062;3.754;2023-08-17T13:29:01;0.00;;;0.00;;
32697;SDS011;19087;51.062;3.754;2023-08-17T13:31:27;0.00;;;0.00;;
32697;SDS011;19087;51.062;3.754;2023-08-17T13:33:54;0.00;;;0.00;;
32697;SDS011;19087;51.062;3.754;2023-08-17T13:36:20;0.00;;;0.00;;
32697;SDS011;19087;51.062;3.754;2023-08-17T13:38:46;0.00;;;0.00;;
32697;SDS011;19087;51.062;3.754;2023-08-17T13:41:12;0.00;;;0.00;;
32697;SDS011;19087;51.062;3.754;2023-08-17T13:43:38;0.00;;;0.00;;
32697;SDS011;19087;51.062;3.754;2023-08-17T13:46:04;0.00;;;0.00;;
32697;SDS011;19087;51.062;3.754;2023-08-17T13:48:30;0.00;;;0.00;;
32697;SDS011;19087;51.062;3.754;2023-08-17T13:50:55;0.00;;;0.00;;
32697;SDS011;19087;51.062;3.754;2023-08-17T13:53:21;0.00;;;0.00;;
32697;SDS011;19087;51.062;3.754;2023-08-17T13:55:47;0.00;;;0.00;;
32697;SDS011;19087;51.062;3.754;2023-08-17T13:58:13;0.03;;;0.03;;
32697;SDS011;19087;51.062;3.754;2023-08-17T14:00:40;0.00;;;0.00;;
32697;SDS011;19087;51.062;3.754;2023-08-17T14:03:06;0.00;;;0.00;;
32697;SDS011;19087;51.062;3.754;2023-08-17T14:05:34;0.05;;;0.05;;
32697;SDS011;19087;51.062;3.754;2023-08-17T14:07:59;0.00;;;0.00;;
32697;SDS011;19087;51.062;3.754;2023-08-17T14:10:26;0.00;;;0.00;;
32697;SDS011;19087;51.062;3.754;2023-08-17T14:12:52;0.00;;;0.00;;
32697;SDS011;19087;51.062;3.754;2023-08-17T14:15:17;0.10;;;0.10;;
32697;SDS011;19087;51.062;3.754;2023-08-17T14:17:43;0.00;;;0.00;;
32697;SDS011;19087;51.062;3.754;2023-08-17T14:20:09;0.10;;;0.10;;
32697;SDS011;19087;51.062;3.754;2023-08-17T14:22:35;0.00;;;0.00;;
32697;SDS011;19087;51.062;3.754;2023-08-17T14:25:01;0.10;;;0.10;;
32697;SDS011;19087;51.062;3.754;2023-08-17T14:27:28;0.00;;;0.00;;
32697;SDS011;19087;51.062;3.754;2023-08-17T14:29:57;0.00;;;0.00;;
32697;SDS011;19087;51.062;3.754;2023-08-17T14:32:26;0.00;;;0.00;;
32697;SDS011;19087;51.062;3.754;2023-08-17T14:37:28;0.03;;;0.03;;
32697;SDS011;19087;51.062;3.754;2023-08-17T14:39:53;0.00;;;0.00;;
32697;SDS011;19087;51.062;3.754;2023-08-17T14:42:19;0.00;;;0.00;;
32697;SDS011;19087;51.062;3.754;2023-08-17T14:44:48;0.05;;;0.05;;
32697;SDS011;19087;51.062;3.754;2023-08-17T14:47:29;0.00;;;0.00;;
32697;SDS011;19087;51.062;3.754;2023-08-17T14:49:56;0.00;;;0.00;;
32697;SDS011;19087;51.062;3.754;2023-08-17T14:52:22;0.00;;;0.00;;
32697;SDS011;19087;51.062;3.754;2023-08-17T14:54:48;0.00;;;0.00;;
32697;SDS011;19087;51.062;3.754;2023-08-17T14:57:14;0.00;;;0.00;;
32697;SDS011;19087;51.062;3.754;2023-08-17T14:59:39;0.05;;;0.05;;
32697;SDS011;19087;51.062;3.754;2023-08-17T15:02:09;0.00;;;0.00;;
32697;SDS011;19087;51.062;3.754;2023-08-17T15:04:39;0.05;;;0.05;;
32697;SDS011;19087;51.062;3.754;2023-08-17T15:07:05;0.00;;;0.00;;
32697;SDS011;19087;51.062;3.754;2023-08-17T15:09:36;0.00;;;0.00;;
32697;SDS011;19087;51.062;3.754;2023-08-17T15:12:02;0.00;;;0.00;;
32697;SDS011;19087;51.062;3.754;2023-08-17T15:14:28;0.10;;;0.10;;
32697;SDS011;19087;51.062;3.754;2023-08-17T15:16:54;0.00;;;0.00;;